Riley, Oregon
Current Conditions -  °F | °C
As of 7:53 AM on Thursday 30 Oct 2014 (Local Time) from KBNO Reporting Station
Clear Clear  
Wind Chill: 33°   Ceiling: Unl
Heat Index: 33°   Visibility: 10mi
Dew Point: 31°   Wind: 3mph
Humidity: 92%   Direction: 240°WSW
Pressure: 30.12"   Gusts: NA
Location:  43.54°N, 119.51°W
Report Text: KBNO 301453Z AUTO 24003KT 10SM CLR 01/M01 A3012 RMK AO2 SLP205 T00061006 51002 $
Loading
Personal Weather Stations






























Interactive Weather Map
Tropical Storm Tracking
New forecast layout! Learn more

10-Day Weather Forecast

Advertisements
Track Severe Weather on mobile